sensor_id;sensor_type;location;lat;lon;timestamp;pressure;altitude;pressure_sealevel;temperature;humidity
59787;BME280;45672;51.612;5.536;2023-11-18T00:01:08;102158.53;;;4.50;100.00
59787;BME280;45672;51.612;5.536;2023-11-18T00:03:34;102166.44;;;4.50;100.00
59787;BME280;45672;51.612;5.536;2023-11-18T00:05:59;102168.16;;;4.51;100.00
59787;BME280;45672;51.612;5.536;2023-11-18T00:08:25;102168.16;;;4.51;100.00
59787;BME280;45672;51.612;5.536;2023-11-18T00:10:53;102174.34;;;4.50;100.00
59787;BME280;45672;51.612;5.536;2023-11-18T00:13:18;102170.97;;;4.48;100.00
59787;BME280;45672;51.612;5.536;2023-11-18T00:15:44;102165.84;;;4.45;100.00
59787;BME280;45672;51.612;5.536;2023-11-18T00:18:11;102163.44;;;4.40;100.00
59787;BME280;45672;51.612;5.536;2023-11-18T00:20:37;102161.06;;;4.36;100.00
59787;BME280;45672;51.612;5.536;2023-11-18T00:23:02;102165.63;;;4.32;100.00
59787;BME280;45672;51.612;5.536;2023-11-18T00:25:30;102166.50;;;4.32;100.00
59787;BME280;45672;51.612;5.536;2023-11-18T00:27:55;102159.59;;;4.30;100.00
59787;BME280;45672;51.612;5.536;2023-11-18T00:30:20;102161.53;;;4.26;100.00
59787;BME280;45672;51.612;5.536;2023-11-18T00:32:46;102159.00;;;4.25;100.00
59787;BME280;45672;51.612;5.536;2023-11-18T00:35:11;102153.81;;;4.23;100.00
59787;BME280;45672;51.612;5.536;2023-11-18T00:37:36;102154.69;;;4.24;100.00
59787;BME280;45672;51.612;5.536;2023-11-18T00:40:02;102163.75;;;4.18;100.00
59787;BME280;45672;51.612;5.536;2023-11-18T00:42:28;102162.03;;;4.17;100.00
59787;BME280;45672;51.612;5.536;2023-11-18T00:44:53;102155.75;;;4.20;100.00
59787;BME280;45672;51.612;5.536;2023-11-18T00:47:20;102159.31;;;4.19;100.00
59787;BME280;45672;51.612;5.536;2023-11-18T00:49:48;102148.25;;;4.12;100.00
59787;BME280;45672;51.612;5.536;2023-11-18T00:52:14;102158.03;;;4.10;100.00
59787;BME280;45672;51.612;5.536;2023-11-18T00:54:39;102154.47;;;4.11;100.00
59787;BME280;45672;51.612;5.536;2023-11-18T00:57:05;102162.28;;;4.12;100.00
59787;BME280;45672;51.612;5.536;2023-11-18T00:59:30;102157.09;;;4.11;100.00
59787;BME280;45672;51.612;5.536;2023-11-18T01:01:56;102143.66;;;4.00;100.00
59787;BME280;45672;51.612;5.536;2023-11-18T01:04:21;102160.81;;;4.07;100.00
59787;BME280;45672;51.612;5.536;2023-11-18T01:06:46;102153.09;;;4.04;100.00
59787;BME280;45672;51.612;5.536;2023-11-18T01:09:13;102162.69;;;4.05;100.00
59787;BME280;45672;51.612;5.536;2023-11-18T01:11:39;102166.84;;;4.09;100.00
59787;BME280;45672;51.612;5.536;2023-11-18T01:14:05;102178.00;;;4.14;100.00
59787;BME280;45672;51.612;5.536;2023-11-18T01:16:31;102171.03;;;4.13;100.00
59787;BME280;45672;51.612;5.536;2023-11-18T01:18:56;102169.19;;;4.15;100.00
59787;BME280;45672;51.612;5.536;2023-11-18T01:21:22;102181.25;;;4.19;100.00
59787;BME280;45672;51.612;5.536;2023-11-18T01:23:48;102176.94;;;4.18;100.00
59787;BME280;45672;51.612;5.536;2023-11-18T01:26:14;102177.34;;;4.26;100.00
59787;BME280;45672;51.612;5.536;2023-11-18T01:28:40;102183.22;;;4.31;100.00
59787;BME280;45672;51.612;5.536;2023-11-18T01:31:09;102170.91;;;4.32;100.00
59787;BME280;45672;51.612;5.536;2023-11-18T01:33:35;102179.44;;;4.37;100.00
59787;BME280;45672;51.612;5.536;2023-11-18T01:36:03;102164.78;;;4.31;100.00
59787;BME280;45672;51.612;5.536;2023-11-18T01:38:29;102169.59;;;4.41;100.00
59787;BME280;45672;51.612;5.536;2023-11-18T01:40:56;102176.53;;;4.42;100.00
59787;BME280;45672;51.612;5.536;2023-11-18T01:43:21;102171.34;;;4.40;100.00
59787;BME280;45672;51.612;5.536;2023-11-18T01:45:47;102167.09;;;4.38;100.00
59787;BME280;45672;51.612;5.536;2023-11-18T01:48:13;102170.34;;;4.43;100.00
59787;BME280;45672;51.612;5.536;2023-11-18T01:50:41;102172.13;;;4.42;100.00
59787;BME280;45672;51.612;5.536;2023-11-18T01:53:06;102164.81;;;4.47;100.00
59787;BME280;45672;51.612;5.536;2023-11-18T01:55:33;102162.25;;;4.46;100.00
59787;BME280;45672;51.612;5.536;2023-11-18T01:58:00;102163.06;;;4.48;100.00
59787;BME280;45672;51.612;5.536;2023-11-18T02:00:28;102164.69;;;4.51;100.00
59787;BME280;45672;51.612;5.536;2023-11-18T02:02:55;102172.31;;;4.55;100.00
59787;BME280;45672;51.612;5.536;2023-11-18T02:05:21;102166.19;;;4.55;100.00
59787;BME280;45672;51.612;5.536;2023-11-18T02:07:47;102169.69;;;4.55;100.00
59787;BME280;45672;51.612;5.536;2023-11-18T02:10:12;102173.16;;;4.56;100.00
59787;BME280;45672;51.612;5.536;2023-11-18T02:12:46;102165.16;;;4.57;100.00
59787;BME280;45672;51.612;5.536;2023-11-18T02:15:16;102171.41;;;4.56;100.00
59787;BME280;45672;51.612;5.536;2023-11-18T02:17:43;102160.00;;;4.56;100.00
59787;BME280;45672;51.612;5.536;2023-11-18T02:20:10;102166.78;;;4.60;100.00
59787;BME280;45672;51.612;5.536;2023-11-18T02:22:42;102162.72;;;4.54;100.00
59787;BME280;45672;51.612;5.536;2023-11-18T02:25:09;102170.78;;;4.67;100.00
59787;BME280;45672;51.612;5.536;2023-11-18T02:27:36;102170.78;;;4.67;100.00
59787;BME280;45672;51.612;5.536;2023-11-18T02:30:02;102175.16;;;4.68;100.00
59787;BME280;45672;51.612;5.536;2023-11-18T02:32:59;102184.59;;;4.72;100.00
59787;BME280;45672;51.612;5.536;2023-11-18T02:35:32;102192.59;;;4.71;100.00
59787;BME280;45672;51.612;5.536;2023-11-18T02:38:04;102185.69;;;4.68;100.00
59787;BME280;45672;51.612;5.536;2023-11-18T02:40:36;102182.97;;;4.70;100.00
59787;BME280;45672;51.612;5.536;2023-11-18T02:43:04;102175.97;;;4.69;100.00
59787;BME280;45672;51.612;5.536;2023-11-18T02:45:31;102171.50;;;4.71;100.00
59787;BME280;45672;51.612;5.536;2023-11-18T02:47:57;102170.44;;;4.73;100.00
59787;BME280;45672;51.612;5.536;2023-11-18T02:50:26;102161.03;;;4.69;100.00
59787;BME280;45672;51.612;5.536;2023-11-18T02:52:53;102165.19;;;4.73;100.00
59787;BME280;45672;51.612;5.536;2023-11-18T02:55:18;102153.72;;;4.74;100.00
59787;BME280;45672;51.612;5.536;2023-11-18T02:57:46;102146.72;;;4.73;100.00
59787;BME280;45672;51.612;5.536;2023-11-18T03:00:12;102145.88;;;4.73;100.00
59787;BME280;45672;51.612;5.536;2023-11-18T03:02:43;102131.94;;;4.71;100.00
59787;BME280;45672;51.612;5.536;2023-11-18T03:05:08;102132.88;;;4.70;100.00
59787;BME280;45672;51.612;5.536;2023-11-18T03:07:37;102129.31;;;4.71;100.00
59787;BME280;45672;51.612;5.536;2023-11-18T03:10:03;102123.25;;;4.69;100.00
59787;BME280;45672;51.612;5.536;2023-11-18T03:12:35;102130.25;;;4.70;100.00
59787;BME280;45672;51.612;5.536;2023-11-18T03:15:00;102128.63;;;4.67;100.00
59787;BME280;45672;51.612;5.536;2023-11-18T03:17:26;102126.91;;;4.66;100.00
59787;BME280;45672;51.612;5.536;2023-11-18T03:19:51;102127.09;;;4.63;100.00
59787;BME280;45672;51.612;5.536;2023-11-18T03:22:16;102132.25;;;4.64;100.00
59787;BME280;45672;51.612;5.536;2023-11-18T03:24:42;102141.97;;;4.64;100.00
59787;BME280;45672;51.612;5.536;2023-11-18T03:27:07;102141.13;;;4.63;100.00
59787;BME280;45672;51.612;5.536;2023-11-18T03:29:34;102141.97;;;4.64;100.00
59787;BME280;45672;51.612;5.536;2023-11-18T03:31:59;102134.16;;;4.62;100.00
59787;BME280;45672;51.612;5.536;2023-11-18T03:34:25;102134.16;;;4.62;100.00
59787;BME280;45672;51.612;5.536;2023-11-18T03:36:50;102141.88;;;4.65;100.00
59787;BME280;45672;51.612;5.536;2023-11-18T03:39:16;102135.78;;;4.65;100.00
59787;BME280;45672;51.612;5.536;2023-11-18T03:41:42;102129.47;;;4.68;100.00
59787;BME280;45672;51.612;5.536;2023-11-18T03:44:11;102123.44;;;4.65;100.00
59787;BME280;45672;51.612;5.536;2023-11-18T03:46:36;102108.72;;;4.61;100.00
59787;BME280;45672;51.612;5.536;2023-11-18T03:49:02;102111.25;;;4.63;100.00
59787;BME280;45672;51.612;5.536;2023-11-18T03:51:28;102110.44;;;4.62;100.00
59787;BME280;45672;51.612;5.536;2023-11-18T03:53:53;102097.16;;;4.64;100.00
59787;BME280;45672;51.612;5.536;2023-11-18T03:56:19;102089.34;;;4.62;100.00
59787;BME280;45672;51.612;5.536;2023-11-18T03:58:44;102080.50;;;4.63;100.00
59787;BME280;45672;51.612;5.536;2023-11-18T04:01:22;102072.66;;;4.62;100.00
59787;BME280;45672;51.612;5.536;2023-11-18T04:03:48;102071.16;;;4.58;100.00
59787;BME280;45672;51.612;5.536;2023-11-18T04:06:13;102061.44;;;4.58;100.00
59787;BME280;45672;51.612;5.536;2023-11-18T04:08:45;102053.63;;;4.57;100.00
59787;BME280;45672;51.612;5.536;2023-11-18T04:11:12;102051.25;;;4.52;100.00
59787;BME280;45672;51.612;5.536;2023-11-18T04:13:41;102056.34;;;4.55;100.00
59787;BME280;45672;51.612;5.536;2023-11-18T04:16:10;102038.22;;;4.49;100.00
59787;BME280;45672;51.612;5.536;2023-11-18T04:18:41;102057.38;;;4.53;100.00
59787;BME280;45672;51.612;5.536;2023-11-18T04:21:08;102061.63;;;4.55;100.00
59787;BME280;45672;51.612;5.536;2023-11-18T04:23:41;102065.09;;;4.56;100.00
59787;BME280;45672;51.612;5.536;2023-11-18T04:26:07;102066.03;;;4.55;100.00
59787;BME280;45672;51.612;5.536;2023-11-18T04:28:36;102058.97;;;4.55;100.00
59787;BME280;45672;51.612;5.536;2023-11-18T04:31:01;102055.25;;;4.59;100.00
59787;BME280;45672;51.612;5.536;2023-11-18T04:33:28;102044.69;;;4.59;100.00
59787;BME280;45672;51.612;5.536;2023-11-18T04:35:54;102041.88;;;4.62;100.00
59787;BME280;45672;51.612;5.536;2023-11-18T04:38:22;102034.53;;;4.68;100.00
59787;BME280;45672;51.612;5.536;2023-11-18T04:40:47;102029.44;;;4.64;100.00
59787;BME280;45672;51.612;5.536;2023-11-18T04:43:13;102032.28;;;4.61;100.00
59787;BME280;45672;51.612;5.536;2023-11-18T04:45:38;102024.38;;;4.61;100.00
59787;BME280;45672;51.612;5.536;2023-11-18T04:48:04;102023.53;;;4.61;100.00
59787;BME280;45672;51.612;5.536;2023-11-18T04:50:31;102023.44;;;4.62;100.00
59787;BME280;45672;51.612;5.536;2023-11-18T04:52:58;102018.06;;;4.64;100.00
59787;BME280;45672;51.612;5.536;2023-11-18T04:55:23;102024.97;;;4.66;100.00
59787;BME280;45672;51.612;5.536;2023-11-18T04:57:49;102022.16;;;4.70;100.00
59787;BME280;45672;51.612;5.536;2023-11-18T05:00:14;102014.16;;;4.71;100.00
59787;BME280;45672;51.612;5.536;2023-11-18T05:02:42;102010.41;;;4.75;100.00
59787;BME280;45672;51.612;5.536;2023-11-18T05:05:09;102001.47;;;4.78;100.00
59787;BME280;45672;51.612;5.536;2023-11-18T05:07:36;101999.00;;;4.75;100.00
59787;BME280;45672;51.612;5.536;2023-11-18T05:10:02;102011.06;;;4.79;100.00
59787;BME280;45672;51.612;5.536;2023-11-18T05:12:28;102010.13;;;4.80;100.00
59787;BME280;45672;51.612;5.536;2023-11-18T05:14:55;102014.28;;;4.84;100.00
59787;BME280;45672;51.612;5.536;2023-11-18T05:17:21;102005.63;;;4.82;100.00
59787;BME280;45672;51.612;5.536;2023-11-18T05:19:46;101990.66;;;4.82;100.00
59787;BME280;45672;51.612;5.536;2023-11-18T05:22:12;101995.81;;;4.84;100.00
59787;BME280;45672;51.612;5.536;2023-11-18T05:24:37;101979.91;;;4.86;100.00
59787;BME280;45672;51.612;5.536;2023-11-18T05:27:03;101975.66;;;4.83;100.00
59787;BME280;45672;51.612;5.536;2023-11-18T05:29:28;101984.34;;;4.85;100.00
59787;BME280;45672;51.612;5.536;2023-11-18T05:31:54;101969.91;;;4.76;100.00
59787;BME280;45672;51.612;5.536;2023-11-18T05:34:22;101981.72;;;4.85;100.00
59787;BME280;45672;51.612;5.536;2023-11-18T05:36:48;101995.56;;;4.89;100.00
59787;BME280;45672;51.612;5.536;2023-11-18T05:39:14;101978.72;;;4.91;100.00
59787;BME280;45672;51.612;5.536;2023-11-18T05:41:40;101986.72;;;4.90;100.00
59787;BME280;45672;51.612;5.536;2023-11-18T05:44:06;101992.66;;;4.93;100.00
59787;BME280;45672;51.612;5.536;2023-11-18T05:46:34;101979.38;;;4.95;100.00
59787;BME280;45672;51.612;5.536;2023-11-18T05:49:03;101972.31;;;4.95;100.00
59787;BME280;45672;51.612;5.536;2023-11-18T05:51:32;101963.38;;;4.98;100.00
59787;BME280;45672;51.612;5.536;2023-11-18T05:53:58;101954.78;;;4.94;100.00
59787;BME280;45672;51.612;5.536;2023-11-18T05:56:23;101955.75;;;4.93;100.00
59787;BME280;45672;51.612;5.536;2023-11-18T05:58:50;101959.03;;;4.97;100.00
59787;BME280;45672;51.612;5.536;2023-11-18T06:01:17;101970.41;;;4.97;100.00
59787;BME280;45672;51.612;5.536;2023-11-18T06:03:43;101960.94;;;4.95;100.00
59787;BME280;45672;51.612;5.536;2023-11-18T06:06:10;101962.50;;;4.97;100.00
59787;BME280;45672;51.612;5.536;2023-11-18T06:08:37;101954.53;;;4.99;100.00
59787;BME280;45672;51.612;5.536;2023-11-18T06:11:10;101938.72;;;4.99;100.00
59787;BME280;45672;51.612;5.536;2023-11-18T06:13:47;101945.47;;;5.03;100.00
59787;BME280;45672;51.612;5.536;2023-11-18T06:16:24;101926.25;;;5.01;100.00
59787;BME280;45672;51.612;5.536;2023-11-18T06:18:53;101916.94;;;4.95;100.00
59787;BME280;45672;51.612;5.536;2023-11-18T06:21:20;101942.09;;;5.01;100.00
59787;BME280;45672;51.612;5.536;2023-11-18T06:23:49;101945.66;;;5.00;100.00
59787;BME280;45672;51.612;5.536;2023-11-18T06:26:15;101956.88;;;5.04;100.00
59787;BME280;45672;51.612;5.536;2023-11-18T06:28:42;101961.03;;;5.08;100.00
59787;BME280;45672;51.612;5.536;2023-11-18T06:31:09;101956.50;;;5.10;100.00
59787;BME280;45672;51.612;5.536;2023-11-18T06:33:41;101954.81;;;5.09;100.00
59787;BME280;45672;51.612;5.536;2023-11-18T06:38:38;101907.31;;;4.94;100.00
59787;BME280;45672;51.612;5.536;2023-11-18T06:41:04;101942.38;;;5.11;100.00
59787;BME280;45672;51.612;5.536;2023-11-18T06:43:31;101936.34;;;5.09;100.00
59787;BME280;45672;51.612;5.536;2023-11-18T06:46:11;101950.31;;;5.11;100.00
59787;BME280;45672;51.612;5.536;2023-11-18T06:48:39;101940.50;;;5.13;100.00
59787;BME280;45672;51.612;5.536;2023-11-18T06:51:05;101936.94;;;5.14;100.00
59787;BME280;45672;51.612;5.536;2023-11-18T06:53:33;101942.09;;;5.15;100.00
59787;BME280;45672;51.612;5.536;2023-11-18T06:55:58;101934.09;;;5.17;100.00
59787;BME280;45672;51.612;5.536;2023-11-18T06:58:24;101925.44;;;5.15;100.00
59787;BME280;45672;51.612;5.536;2023-11-18T07:00:49;101924.50;;;5.16;100.00
59787;BME280;45672;51.612;5.536;2023-11-18T07:03:14;101921.00;;;5.15;100.00
59787;BME280;45672;51.612;5.536;2023-11-18T07:05:41;101925.25;;;5.18;100.00
59787;BME280;45672;51.612;5.536;2023-11-18T07:08:06;101925.16;;;5.20;100.00
59787;BME280;45672;51.612;5.536;2023-11-18T07:10:33;101924.41;;;5.17;100.00
59787;BME280;45672;51.612;5.536;2023-11-18T07:13:00;101922.22;;;5.24;100.00
59787;BME280;45672;51.612;5.536;2023-11-18T07:15:25;101926.47;;;5.27;100.00
59787;BME280;45672;51.612;5.536;2023-11-18T07:17:50;101916.84;;;5.26;100.00
59787;BME280;45672;51.612;5.536;2023-11-18T07:20:16;101918.75;;;5.24;100.00
59787;BME280;45672;51.612;5.536;2023-11-18T07:22:42;101922.81;;;5.29;100.00
59787;BME280;45672;51.612;5.536;2023-11-18T07:25:07;101918.94;;;5.35;100.00
59787;BME280;45672;51.612;5.536;2023-11-18T07:27:35;101910.19;;;5.34;100.00
59787;BME280;45672;51.612;5.536;2023-11-18T07:30:00;101914.50;;;5.35;100.00
59787;BME280;45672;51.612;5.536;2023-11-18T07:32:25;101919.59;;;5.39;100.00
59787;BME280;45672;51.612;5.536;2023-11-18T07:34:51;101932.63;;;5.42;100.00
59787;BME280;45672;51.612;5.536;2023-11-18T07:37:16;101933.34;;;5.44;100.00
59787;BME280;45672;51.612;5.536;2023-11-18T07:39:42;101929.78;;;5.45;100.00
59787;BME280;45672;51.612;5.536;2023-11-18T07:42:11;101938.44;;;5.47;100.00
59787;BME280;45672;51.612;5.536;2023-11-18T07:44:38;101929.19;;;5.54;100.00
59787;BME280;45672;51.612;5.536;2023-11-18T07:47:04;101933.53;;;5.55;100.00
59787;BME280;45672;51.612;5.536;2023-11-18T07:49:31;101937.88;;;5.56;100.00
59787;BME280;45672;51.612;5.536;2023-11-18T07:51:56;101952.03;;;5.55;100.00
59787;BME280;45672;51.612;5.536;2023-11-18T07:54:22;101938.72;;;5.57;100.00
59787;BME280;45672;51.612;5.536;2023-11-18T07:56:49;101941.47;;;5.55;100.00
59787;BME280;45672;51.612;5.536;2023-11-18T07:59:14;101954.16;;;5.63;100.00
59787;BME280;45672;51.612;5.536;2023-11-18T08:01:45;101954.00;;;5.66;100.00
59787;BME280;45672;51.612;5.536;2023-11-18T08:04:14;101950.41;;;5.67;100.00
59787;BME280;45672;51.612;5.536;2023-11-18T08:06:40;101944.94;;;5.70;100.00
59787;BME280;45672;51.612;5.536;2023-11-18T08:09:06;101947.50;;;5.72;100.00
59787;BME280;45672;51.612;5.536;2023-11-18T08:11:39;101948.13;;;5.75;100.00
59787;BME280;45672;51.612;5.536;2023-11-18T08:14:09;101939.38;;;5.75;100.00
59787;BME280;45672;51.612;5.536;2023-11-18T08:16:35;101943.53;;;5.79;100.00
59787;BME280;45672;51.612;5.536;2023-11-18T08:19:01;101927.94;;;5.74;100.00
59787;BME280;45672;51.612;5.536;2023-11-18T08:21:33;101936.34;;;5.81;100.00
59787;BME280;45672;51.612;5.536;2023-11-18T08:23:58;101916.91;;;5.82;100.00
59787;BME280;45672;51.612;5.536;2023-11-18T08:26:25;101915.97;;;5.83;100.00
59787;BME280;45672;51.612;5.536;2023-11-18T08:28:50;101926.34;;;5.86;100.00
59787;BME280;45672;51.612;5.536;2023-11-18T08:31:17;101936.81;;;5.87;100.00
59787;BME280;45672;51.612;5.536;2023-11-18T08:33:42;101928.78;;;5.89;100.00
59787;BME280;45672;51.612;5.536;2023-11-18T08:36:08;101916.41;;;5.90;100.00
59787;BME280;45672;51.612;5.536;2023-11-18T08:38:34;101909.44;;;5.89;100.00
59787;BME280;45672;51.612;5.536;2023-11-18T08:41:00;101915.06;;;5.97;100.00
59787;BME280;45672;51.612;5.536;2023-11-18T08:43:25;101903.66;;;5.96;100.00
59787;BME280;45672;51.612;5.536;2023-11-18T08:45:53;101897.16;;;6.02;100.00
59787;BME280;45672;51.612;5.536;2023-11-18T08:48:20;101900.47;;;6.06;100.00
59787;BME280;45672;51.612;5.536;2023-11-18T08:50:45;101895.94;;;6.08;100.00
59787;BME280;45672;51.612;5.536;2023-11-18T08:53:11;101886.19;;;6.08;100.00
59787;BME280;45672;51.612;5.536;2023-11-18T08:55:37;101881.56;;;6.12;100.00
59787;BME280;45672;51.612;5.536;2023-11-18T08:58:16;101873.63;;;6.12;100.00
59787;BME280;45672;51.612;5.536;2023-11-18T09:00:55;101857.69;;;6.13;100.00
59787;BME280;45672;51.612;5.536;2023-11-18T09:05:58;101857.09;;;6.23;100.00
59787;BME280;45672;51.612;5.536;2023-11-18T09:08:30;101867.44;;;6.26;100.00
59787;BME280;45672;51.612;5.536;2023-11-18T09:11:00;101860.25;;;6.28;100.00
59787;BME280;45672;51.612;5.536;2023-11-18T09:13:26;101872.53;;;6.29;100.00
59787;BME280;45672;51.612;5.536;2023-11-18T09:15:58;101860.91;;;6.31;100.00
59787;BME280;45672;51.612;5.536;2023-11-18T09:18:26;101857.19;;;6.34;100.00
59787;BME280;45672;51.612;5.536;2023-11-18T09:20:53;101857.97;;;6.36;100.00
59787;BME280;45672;51.612;5.536;2023-11-18T09:23:20;101837.03;;;6.33;100.00
59787;BME280;45672;51.612;5.536;2023-11-18T09:25:49;101840.41;;;6.35;100.00
59787;BME280;45672;51.612;5.536;2023-11-18T09:28:15;101831.63;;;6.34;100.00
59787;BME280;45672;51.612;5.536;2023-11-18T09:30:42;101827.72;;;6.27;100.00
59787;BME280;45672;51.612;5.536;2023-11-18T09:33:17;101814.16;;;6.19;100.00
59787;BME280;45672;51.612;5.536;2023-11-18T09:35:51;101813.72;;;6.25;100.00
59787;BME280;45672;51.612;5.536;2023-11-18T09:38:17;101816.38;;;6.25;100.00
59787;BME280;45672;51.612;5.536;2023-11-18T09:40:43;101801.50;;;6.24;100.00
59787;BME280;45672;51.612;5.536;2023-11-18T09:43:11;101810.34;;;6.23;100.00
59787;BME280;45672;51.612;5.536;2023-11-18T09:45:39;101792.06;;;6.20;100.00
59787;BME280;45672;51.612;5.536;2023-11-18T09:48:06;101793.75;;;6.21;100.00
59787;BME280;45672;51.612;5.536;2023-11-18T09:50:32;101789.63;;;6.17;100.00
59787;BME280;45672;51.612;5.536;2023-11-18T09:53:01;101786.13;;;6.16;100.00
59787;BME280;45672;51.612;5.536;2023-11-18T09:55:40;101803.47;;;6.20;100.00
59787;BME280;45672;51.612;5.536;2023-11-18T09:58:09;101787.72;;;6.19;100.00
59787;BME280;45672;51.612;5.536;2023-11-18T10:00:39;101788.38;;;6.23;100.00
59787;BME280;45672;51.612;5.536;2023-11-18T10:03:07;101775.06;;;6.24;100.00
59787;BME280;45672;51.612;5.536;2023-11-18T10:05:35;101786.91;;;6.31;100.00
59787;BME280;45672;51.612;5.536;2023-11-18T10:08:03;101774.41;;;6.33;100.00
59787;BME280;45672;51.612;5.536;2023-11-18T10:10:31;101764.91;;;6.31;100.00
59787;BME280;45672;51.612;5.536;2023-11-18T10:13:02;101765.44;;;6.36;100.00
59787;BME280;45672;51.612;5.536;2023-11-18T10:15:29;101760.16;;;6.36;100.00
59787;BME280;45672;51.612;5.536;2023-11-18T10:17:56;101745.25;;;6.35;100.00
59787;BME280;45672;51.612;5.536;2023-11-18T10:23:08;101742.19;;;6.41;100.00
59787;BME280;45672;51.612;5.536;2023-11-18T10:25:36;101739.44;;;6.43;100.00
59787;BME280;45672;51.612;5.536;2023-11-18T10:28:06;101741.09;;;6.44;100.00
59787;BME280;45672;51.612;5.536;2023-11-18T10:30:31;101739.22;;;6.46;100.00
59787;BME280;45672;51.612;5.536;2023-11-18T10:32:59;101736.38;;;6.49;100.00
59787;BME280;45672;51.612;5.536;2023-11-18T10:35:34;101742.38;;;6.51;100.00
59787;BME280;45672;51.612;5.536;2023-11-18T10:38:03;101736.25;;;6.50;100.00
59787;BME280;45672;51.612;5.536;2023-11-18T10:40:32;101718.59;;;6.51;100.00
59787;BME280;45672;51.612;5.536;2023-11-18T10:43:03;101719.44;;;6.51;100.00
59787;BME280;45672;51.612;5.536;2023-11-18T10:45:34;101716.91;;;6.50;100.00
59787;BME280;45672;51.612;5.536;2023-11-18T10:48:05;101708.97;;;6.50;100.00
59787;BME280;45672;51.612;5.536;2023-11-18T10:50:31;101709.69;;;6.52;100.00
59787;BME280;45672;51.612;5.536;2023-11-18T10:53:01;101713.72;;;6.58;100.00
59787;BME280;45672;51.612;5.536;2023-11-18T10:55:38;101701.44;;;6.56;100.00
59787;BME280;45672;51.612;5.536;2023-11-18T10:58:03;101697.97;;;6.56;100.00
59787;BME280;45672;51.612;5.536;2023-11-18T11:00:46;101709.91;;;6.62;100.00
59787;BME280;45672;51.612;5.536;2023-11-18T11:03:16;101704.94;;;6.57;100.00
59787;BME280;45672;51.612;5.536;2023-11-18T11:05:43;101721.97;;;6.66;100.00
59787;BME280;45672;51.612;5.536;2023-11-18T11:08:09;101712.13;;;6.68;100.00
59787;BME280;45672;51.612;5.536;2023-11-18T11:10:42;101712.97;;;6.68;100.00
59787;BME280;45672;51.612;5.536;2023-11-18T11:13:08;101701.53;;;6.68;100.00
59787;BME280;45672;51.612;5.536;2023-11-18T11:15:40;101676.91;;;6.67;100.00
59787;BME280;45672;51.612;5.536;2023-11-18T11:18:08;101667.16;;;6.68;100.00
59787;BME280;45672;51.612;5.536;2023-11-18T11:20:42;101651.50;;;6.65;100.00
59787;BME280;45672;51.612;5.536;2023-11-18T11:23:21;101664.41;;;6.69;100.00
59787;BME280;45672;51.612;5.536;2023-11-18T11:26:08;101655.53;;;6.70;100.00
59787;BME280;45672;51.612;5.536;2023-11-18T11:28:46;101644.00;;;6.71;100.00
59787;BME280;45672;51.612;5.536;2023-11-18T11:31:29;101628.13;;;6.71;100.00
59787;BME280;45672;51.612;5.536;2023-11-18T11:33:59;101630.53;;;6.75;100.00
59787;BME280;45672;51.612;5.536;2023-11-18T11:36:35;101608.66;;;6.72;100.00
59787;BME280;45672;51.612;5.536;2023-11-18T11:39:04;101600.63;;;6.74;100.00
59787;BME280;45672;51.612;5.536;2023-11-18T11:41:32;101598.69;;;6.76;100.00
59787;BME280;45672;51.612;5.536;2023-11-18T11:44:00;101572.34;;;6.75;100.00
59787;BME280;45672;51.612;5.536;2023-11-18T11:46:26;101560.59;;;6.79;100.00
59787;BME280;45672;51.612;5.536;2023-11-18T11:48:58;101556.25;;;6.78;100.00
59787;BME280;45672;51.612;5.536;2023-11-18T11:51:34;101559.41;;;6.83;100.00
59787;BME280;45672;51.612;5.536;2023-11-18T11:54:09;101552.44;;;6.82;100.00
59787;BME280;45672;51.612;5.536;2023-11-18T11:56:46;101542.97;;;6.90;100.00
59787;BME280;45672;51.612;5.536;2023-11-18T11:59:15;101533.72;;;6.96;100.00
59787;BME280;45672;51.612;5.536;2023-11-18T12:01:41;101524.72;;;6.99;100.00
59787;BME280;45672;51.612;5.536;2023-11-18T12:04:12;101515.72;;;7.01;100.00
59787;BME280;45672;51.612;5.536;2023-11-18T12:06:46;101481.06;;;6.93;100.00
59787;BME280;45672;51.612;5.536;2023-11-18T12:09:13;101485.91;;;6.99;100.00
59787;BME280;45672;51.612;5.536;2023-11-18T12:11:45;101475.53;;;6.96;100.00
59787;BME280;45672;51.612;5.536;2023-11-18T12:14:14;101473.38;;;7.01;100.00
59787;BME280;45672;51.612;5.536;2023-11-18T12:17:05;101474.19;;;6.90;100.00
59787;BME280;45672;51.612;5.536;2023-11-18T12:19:39;101475.19;;;7.01;100.00
59787;BME280;45672;51.612;5.536;2023-11-18T12:22:19;101468.34;;;6.98;100.00
59787;BME280;45672;51.612;5.536;2023-11-18T12:32:58;101423.72;;;7.05;100.00
59787;BME280;45672;51.612;5.536;2023-11-18T12:35:27;101422.75;;;7.06;100.00
59787;BME280;45672;51.612;5.536;2023-11-18T12:40:52;101404.22;;;7.06;100.00
59787;BME280;45672;51.612;5.536;2023-11-18T12:48:56;101365.63;;;7.03;100.00
59787;BME280;45672;51.612;5.536;2023-11-18T12:51:22;101354.09;;;7.04;100.00
59787;BME280;45672;51.612;5.536;2023-11-18T12:53:48;101338.09;;;7.06;100.00
59787;BME280;45672;51.612;5.536;2023-11-18T12:56:19;101335.06;;;7.11;100.00
59787;BME280;45672;51.612;5.536;2023-11-18T12:58:48;101330.63;;;7.11;100.00
59787;BME280;45672;51.612;5.536;2023-11-18T13:01:14;101325.47;;;7.10;100.00
59787;BME280;45672;51.612;5.536;2023-11-18T13:03:41;101304.88;;;7.13;100.00
59787;BME280;45672;51.612;5.536;2023-11-18T13:06:08;101298.03;;;7.11;100.00
59787;BME280;45672;51.612;5.536;2023-11-18T13:08:34;101293.47;;;7.13;100.00
59787;BME280;45672;51.612;5.536;2023-11-18T13:10:59;101297.06;;;7.12;100.00
59787;BME280;45672;51.612;5.536;2023-11-18T13:13:28;101291.19;;;7.08;100.00
59787;BME280;45672;51.612;5.536;2023-11-18T13:15:55;101288.56;;;7.08;100.00
59787;BME280;45672;51.612;5.536;2023-11-18T13:18:20;101286.03;;;7.06;100.00